Terminal Aerodrome Forecast
Issued by NWS Wakefield, VA

Home | Current Version | Previous Version | Text Only | Print | Product List | Glossary On
Versions: 1 2 3 4 5 6 7 8 9 10 11 12 13
017
FTUS41 KAKQ 270522
TAFECG
TAF
KECG 270522Z 2706/2806 23005KT P6SM VCTS BKN090CB
     FM271000 23004KT P6SM BKN100
     FM271600 24004KT P6SM VCSH SCT100
     FM272300 20006KT P6SM BKN100=

USA.gov is the U.S. government's official web portal to all federal, state and local government web resources and services.